createdAt,value
2023-04-10T00:01:13.266Z,61.50
2023-04-10T00:03:40.090Z,61.13
2023-04-10T00:06:07.481Z,58.78
2023-04-10T00:08:34.115Z,58.30
2023-04-10T00:11:00.803Z,66.40
2023-04-10T00:13:27.425Z,59.42
2023-04-10T00:15:54.056Z,65.88
2023-04-10T00:18:20.773Z,62.13
2023-04-10T00:20:47.362Z,60.90
2023-04-10T00:23:14.364Z,56.83
2023-04-10T00:25:40.961Z,62.85
2023-04-10T00:28:07.531Z,65.88
2023-04-10T00:30:34.146Z,69.30
2023-04-10T00:33:01.111Z,63.13
2023-04-10T00:35:27.985Z,71.18
2023-04-10T00:37:56.232Z,72.10
2023-04-10T00:40:23.059Z,73.10
2023-04-10T00:42:49.819Z,66.65
2023-04-10T00:45:16.482Z,67.80
2023-04-10T00:47:43.244Z,64.75
2023-04-10T00:50:10.538Z,74.05
2023-04-10T00:52:37.522Z,66.55
2023-04-10T00:55:04.588Z,74.18
2023-04-10T00:57:32.115Z,78.88
2023-04-10T00:59:58.827Z,70.85
2023-04-10T01:02:25.884Z,63.28
2023-04-10T01:04:53.036Z,67.53
2023-04-10T01:07:29.586Z,69.05
2023-04-10T01:10:01.975Z,64.85
2023-04-10T01:13:05.691Z,65.32
2023-04-10T01:15:42.284Z,72.13
2023-04-10T01:18:22.737Z,67.03
2023-04-10T01:20:49.404Z,72.38
2023-04-10T01:23:31.449Z,75.05
2023-04-10T01:26:04.113Z,79.28
2023-04-10T01:28:56.049Z,68.78
2023-04-10T01:31:28.537Z,67.00
2023-04-10T01:34:01.967Z,76.72
2023-04-10T01:36:34.857Z,72.47
2023-04-10T01:39:02.209Z,70.10
2023-04-10T01:41:29.459Z,70.20
2023-04-10T01:43:59.033Z,67.82
2023-04-10T01:46:28.543Z,70.05
2023-04-10T01:48:56.645Z,69.35
2023-04-10T01:51:24.078Z,66.15
2023-04-10T01:53:51.970Z,68.88
2023-04-10T01:56:23.801Z,68.07
2023-04-10T01:58:50.984Z,68.97
2023-04-10T02:01:28.910Z,62.08
2023-04-10T02:03:56.756Z,66.18
2023-04-10T02:06:49.577Z,69.72
2023-04-10T02:09:27.214Z,60.65
2023-04-10T02:12:07.067Z,63.60
2023-04-10T02:14:37.930Z,69.57
2023-04-10T02:17:04.636Z,61.22
2023-04-10T02:19:32.996Z,68.22
2023-04-10T02:21:59.971Z,63.97
2023-04-10T02:24:27.322Z,68.72
2023-04-10T02:26:54.058Z,71.10
2023-04-10T02:29:21.304Z,68.00
2023-04-10T02:31:49.659Z,72.15
2023-04-10T02:34:16.513Z,68.72
2023-04-10T02:36:43.161Z,65.97
2023-04-10T02:39:12.237Z,64.63
2023-04-10T02:41:47.388Z,64.13
2023-04-10T02:44:14.354Z,71.38
2023-04-10T02:46:41.887Z,63.83
2023-04-10T02:49:08.663Z,63.17
2023-04-10T02:51:36.418Z,63.95
2023-04-10T02:54:04.418Z,68.07
2023-04-10T02:56:34.839Z,68.35
2023-04-10T02:59:02.029Z,68.53
2023-04-10T03:01:29.943Z,75.35
2023-04-10T03:03:58.059Z,81.70
2023-04-10T03:06:28.464Z,81.00
2023-04-10T03:08:57.277Z,77.38
2023-04-10T03:11:24.015Z,80.65
2023-04-10T03:13:51.264Z,77.00
2023-04-10T03:16:18.891Z,72.70
2023-04-10T03:18:46.489Z,79.75
2023-04-10T03:21:13.931Z,85.78
2023-04-10T03:23:40.560Z,83.82
2023-04-10T03:26:08.465Z,85.20
2023-04-10T03:28:38.022Z,88.22
2023-04-10T03:31:06.021Z,84.57
2023-04-10T03:33:35.807Z,90.90
2023-04-10T03:36:04.303Z,96.38
2023-04-10T03:38:32.985Z,86.43
2023-04-10T03:40:59.651Z,86.95
2023-04-10T03:43:30.651Z,92.18
2023-04-10T03:45:57.996Z,93.88
2023-04-10T03:48:27.982Z,92.60
2023-04-10T03:50:55.353Z,101.45
2023-04-10T03:53:22.633Z,85.57
2023-04-10T03:55:52.089Z,89.68
2023-04-10T03:58:19.139Z,99.82
2023-04-10T04:00:46.627Z,81.85
2023-04-10T04:03:24.122Z,84.55
2023-04-10T04:05:53.818Z,81.35
2023-04-10T04:08:40.722Z,84.15
2023-04-10T04:11:21.560Z,80.88
2023-04-10T04:13:58.418Z,82.38
2023-04-10T04:16:43.856Z,80.75
2023-04-10T04:19:33.331Z,78.88
2023-04-10T04:24:53.372Z,83.77
2023-04-10T04:27:42.993Z,82.35
2023-04-10T04:30:28.422Z,83.13
2023-04-10T04:33:09.480Z,85.20
2023-04-10T04:36:05.662Z,88.00
2023-04-10T04:38:52.562Z,82.55
2023-04-10T04:41:32.364Z,85.47
2023-04-10T04:44:19.649Z,76.05
2023-04-10T04:47:06.520Z,69.35
2023-04-10T04:49:41.769Z,74.70
2023-04-10T04:52:19.213Z,65.07
2023-04-10T04:55:02.832Z,68.45
2023-04-10T04:57:53.084Z,75.03
2023-04-10T05:00:33.972Z,59.90
2023-04-10T05:03:07.260Z,59.45
2023-04-10T05:05:58.113Z,55.53
2023-04-10T05:08:33.398Z,53.13
2023-04-10T05:11:07.659Z,49.45
2023-04-10T05:13:53.175Z,50.75
2023-04-10T05:16:33.504Z,48.10
2023-04-10T05:19:06.133Z,45.13
2023-04-10T05:21:47.699Z,49.35
2023-04-10T05:24:33.505Z,45.45
2023-04-10T05:27:21.991Z,43.97
2023-04-10T05:30:18.025Z,43.92
2023-04-10T05:33:03.453Z,53.85
2023-04-10T05:35:48.840Z,47.15
2023-04-10T05:38:25.444Z,45.35
2023-04-10T05:41:12.026Z,39.88
2023-04-10T05:43:58.900Z,39.97
2023-04-10T05:46:45.925Z,37.38
2023-04-10T05:49:31.447Z,37.10
2023-04-10T05:52:14.614Z,39.38
2023-04-10T05:55:09.526Z,37.78
2023-04-10T05:57:42.203Z,38.42
2023-04-10T06:00:23.770Z,38.33
2023-04-10T06:03:30.544Z,38.03
2023-04-10T06:06:02.545Z,40.17
2023-04-10T06:08:30.663Z,39.47
2023-04-10T06:10:57.282Z,43.00
2023-04-10T06:13:24.813Z,42.88
2023-04-10T06:15:55.250Z,42.85
2023-04-10T06:18:22.205Z,44.15
2023-04-10T06:20:48.859Z,44.42
2023-04-10T06:23:15.903Z,43.25
2023-04-10T06:25:43.759Z,41.50
2023-04-10T06:28:10.747Z,42.10
2023-04-10T06:30:37.459Z,41.40
2023-04-10T06:33:06.604Z,43.10
2023-04-10T06:35:36.407Z,44.03
2023-04-10T06:38:03.762Z,42.83
2023-04-10T06:40:34.103Z,41.63
2023-04-10T06:43:01.341Z,43.13
2023-04-10T06:45:34.656Z,42.92
2023-04-10T06:48:01.425Z,42.53
2023-04-10T06:50:28.182Z,43.83
2023-04-10T06:52:56.247Z,43.10
2023-04-10T06:55:22.891Z,39.45
2023-04-10T06:57:49.745Z,41.25
2023-04-10T07:00:16.704Z,41.85
2023-04-10T07:02:43.409Z,40.63
2023-04-10T07:05:10.181Z,41.85
2023-04-10T07:07:37.088Z,40.88
2023-04-10T07:10:03.917Z,42.80
2023-04-10T07:12:30.603Z,44.30
2023-04-10T07:14:57.225Z,44.13
2023-04-10T07:17:25.320Z,43.78
2023-04-10T07:19:52.074Z,44.60
2023-04-10T07:22:18.716Z,43.55
2023-04-10T07:24:45.660Z,44.22
2023-04-10T07:27:12.803Z,46.15
2023-04-10T07:29:39.535Z,44.47
2023-04-10T07:32:06.761Z,45.95
2023-04-10T07:34:33.656Z,48.70
2023-04-10T07:37:00.244Z,46.63
2023-04-10T07:39:27.435Z,49.13
2023-04-10T07:41:55.226Z,47.88
2023-04-10T07:44:21.951Z,50.83
2023-04-10T07:46:48.562Z,50.75
2023-04-10T07:49:15.269Z,50.92
2023-04-10T07:51:41.926Z,51.33
2023-04-10T07:54:08.511Z,63.45
2023-04-10T07:56:35.224Z,57.05
2023-04-10T07:59:03.279Z,57.42
2023-04-10T08:01:30.119Z,50.47
2023-04-10T08:03:56.998Z,43.60
2023-04-10T08:06:23.839Z,42.67
2023-04-10T08:08:52.153Z,41.95
2023-04-10T08:11:28.010Z,41.53
2023-04-10T08:13:57.985Z,39.95
2023-04-10T08:16:25.929Z,39.38
2023-04-10T08:18:53.854Z,42.47
2023-04-10T08:21:22.168Z,40.33
2023-04-10T08:23:52.874Z,41.78
2023-04-10T08:26:21.097Z,41.88
2023-04-10T08:28:50.629Z,42.58
2023-04-10T08:31:18.478Z,43.78
2023-04-10T08:33:45.552Z,42.90
2023-04-10T08:36:13.046Z,41.50
2023-04-10T08:38:39.921Z,43.55
2023-04-10T08:41:06.814Z,42.22
2023-04-10T08:43:34.547Z,42.30
2023-04-10T08:46:01.843Z,41.35
2023-04-10T08:48:35.840Z,43.67
2023-04-10T08:51:08.881Z,44.40
2023-04-10T08:56:07.541Z,42.55
2023-04-10T08:58:34.359Z,42.60
2023-04-10T09:01:01.651Z,42.70
2023-04-10T09:03:28.481Z,42.90
2023-04-10T09:05:56.615Z,48.42
2023-04-10T09:08:23.238Z,52.25
2023-04-10T09:10:49.842Z,50.80
2023-04-10T09:13:16.703Z,48.97
2023-04-10T09:15:57.429Z,48.92
2023-04-10T09:18:42.951Z,51.75
2023-04-10T09:21:11.565Z,49.92
2023-04-10T09:23:38.339Z,47.03
2023-04-10T09:26:25.968Z,49.75
2023-04-10T09:29:06.778Z,50.35
2023-04-10T09:31:35.098Z,51.35
2023-04-10T09:34:15.322Z,47.28
2023-04-10T09:37:03.027Z,44.53
2023-04-10T09:39:42.898Z,48.50
2023-04-10T09:42:11.410Z,49.30
2023-04-10T09:44:40.008Z,49.40
2023-04-10T09:47:16.029Z,51.47
2023-04-10T09:49:57.316Z,50.97
2023-04-10T09:52:28.122Z,52.25
2023-04-10T09:54:56.784Z,49.78
2023-04-10T09:57:25.753Z,49.08
2023-04-10T09:59:54.699Z,50.92
2023-04-10T10:02:23.764Z,50.60
2023-04-10T10:04:51.716Z,51.92
2023-04-10T10:07:23.503Z,50.95
2023-04-10T10:09:52.310Z,52.72
2023-04-10T10:12:37.003Z,52.83
2023-04-10T10:15:21.875Z,52.50
2023-04-10T10:18:07.890Z,54.03
2023-04-10T10:20:36.820Z,52.10
2023-04-10T10:23:04.233Z,51.83
2023-04-10T10:25:31.375Z,52.33
2023-04-10T10:28:02.611Z,49.13
2023-04-10T10:30:33.818Z,53.00
2023-04-10T10:33:02.090Z,50.40
2023-04-10T10:35:31.837Z,54.72
2023-04-10T10:38:03.100Z,54.47
2023-04-10T10:40:45.957Z,52.63
2023-04-10T10:43:24.482Z,53.88
2023-04-10T10:46:02.351Z,54.70
2023-04-10T10:48:29.195Z,51.67
2023-04-10T10:50:58.943Z,55.85
2023-04-10T10:53:36.375Z,55.53
2023-04-10T10:56:18.243Z,55.65
2023-04-10T10:59:01.748Z,58.35
2023-04-10T11:01:28.663Z,51.78
2023-04-10T11:03:55.807Z,54.92
2023-04-10T11:06:49.795Z,55.38
2023-04-10T11:09:51.601Z,54.60
2023-04-10T11:12:25.229Z,54.00
2023-04-10T11:15:01.071Z,56.47
2023-04-10T11:17:51.540Z,55.20
2023-04-10T11:20:21.728Z,53.95
2023-04-10T11:23:11.569Z,61.17
2023-04-10T11:25:51.251Z,56.72
2023-04-10T11:28:33.338Z,52.60
2023-04-10T11:31:19.590Z,56.65
2023-04-10T11:34:07.961Z,55.00
2023-04-10T11:36:38.280Z,54.42
2023-04-10T11:39:06.323Z,54.58
2023-04-10T11:41:37.459Z,52.33
2023-04-10T11:44:10.313Z,49.88
2023-04-10T11:46:39.158Z,55.35
2023-04-10T11:49:07.390Z,51.88
2023-04-10T11:51:34.120Z,53.33
2023-04-10T11:54:09.392Z,55.50
2023-04-10T11:56:37.537Z,53.50
2023-04-10T11:59:11.303Z,50.35
2023-04-10T12:01:39.956Z,53.28
2023-04-10T12:04:19.632Z,53.65
2023-04-10T12:06:53.803Z,51.03
2023-04-10T12:09:21.381Z,52.83
2023-04-10T12:11:53.718Z,53.75
2023-04-10T12:14:22.216Z,56.17
2023-04-10T12:16:50.003Z,49.90
2023-04-10T12:19:18.276Z,54.42
2023-04-10T12:21:45.900Z,57.05
2023-04-10T12:24:13.083Z,48.83
2023-04-10T12:26:49.420Z,50.90
2023-04-10T12:29:16.521Z,52.97
2023-04-10T12:31:43.558Z,51.33
2023-04-10T12:34:11.303Z,55.85
2023-04-10T12:36:38.133Z,55.13
2023-04-10T12:39:06.028Z,54.60
2023-04-10T12:41:34.251Z,60.05
2023-04-10T12:44:09.500Z,62.33
2023-04-10T12:46:36.622Z,59.83
2023-04-10T12:49:11.579Z,55.60
2023-04-10T12:51:42.625Z,52.72
2023-04-10T12:54:09.350Z,41.38
2023-04-10T12:56:43.879Z,56.25
2023-04-10T12:59:10.716Z,52.58
2023-04-10T13:01:38.920Z,50.65
2023-04-10T13:04:06.013Z,50.35
2023-04-10T13:06:32.706Z,52.22
2023-04-10T13:08:59.732Z,48.05
2023-04-10T13:11:26.298Z,48.72
2023-04-10T13:13:52.958Z,49.42
2023-04-10T13:16:19.597Z,50.05
2023-04-10T13:18:46.337Z,48.58
2023-04-10T13:21:18.239Z,47.25
2023-04-10T13:23:45.148Z,49.15
2023-04-10T13:26:11.816Z,50.45
2023-04-10T13:28:38.392Z,48.40
2023-04-10T13:31:05.530Z,46.55
2023-04-10T13:33:32.178Z,45.25
2023-04-10T13:35:58.872Z,49.90
2023-04-10T13:38:25.647Z,49.05
2023-04-10T13:40:53.366Z,49.22
2023-04-10T13:43:20.053Z,46.47
2023-04-10T13:45:46.775Z,46.75
2023-04-10T13:48:16.048Z,48.72
2023-04-10T13:50:42.706Z,48.28
2023-04-10T13:53:10.180Z,42.90
2023-04-10T13:55:37.864Z,42.80
2023-04-10T13:58:04.651Z,44.63
2023-04-10T14:00:31.475Z,48.47
2023-04-10T14:02:58.446Z,47.47
2023-04-10T14:05:25.343Z,48.53
2023-04-10T14:07:56.634Z,47.10
2023-04-10T14:10:23.969Z,46.90
2023-04-10T14:12:50.607Z,49.70
2023-04-10T14:15:19.016Z,46.53
2023-04-10T14:17:45.734Z,46.17
2023-04-10T14:20:13.188Z,46.00
2023-04-10T14:22:39.825Z,45.42
2023-04-10T14:25:13.082Z,49.30
2023-04-10T14:27:40.568Z,49.72
2023-04-10T14:30:08.057Z,46.80
2023-04-10T14:32:34.716Z,47.10
2023-04-10T14:35:01.509Z,45.78
2023-04-10T14:37:28.098Z,44.80
2023-04-10T14:39:55.457Z,48.95
2023-04-10T14:42:23.549Z,48.28
2023-04-10T14:44:50.468Z,45.30
2023-04-10T14:47:17.170Z,50.35
2023-04-10T14:49:44.193Z,49.67
2023-04-10T14:52:10.893Z,48.42
2023-04-10T14:54:38.020Z,47.10
2023-04-10T14:57:04.784Z,46.50
2023-04-10T14:59:31.769Z,51.45
2023-04-10T15:01:58.639Z,50.97
2023-04-10T15:04:25.680Z,49.25
2023-04-10T15:06:52.675Z,46.92
2023-04-10T15:09:21.355Z,44.88
2023-04-10T15:11:48.584Z,43.85
2023-04-10T15:14:15.317Z,44.22
2023-04-10T15:16:42.025Z,42.15
2023-04-10T15:19:08.710Z,46.90
2023-04-10T15:21:35.311Z,44.35
2023-04-10T15:24:01.978Z,46.63
2023-04-10T15:26:28.612Z,53.15
2023-04-10T15:28:55.218Z,46.72
2023-04-10T15:31:23.338Z,53.42
2023-04-10T15:33:52.070Z,44.03
2023-04-10T15:36:18.867Z,46.42
2023-04-10T15:38:45.640Z,45.33
2023-04-10T15:41:13.384Z,47.95
2023-04-10T15:43:40.177Z,42.47
2023-04-10T15:46:07.030Z,40.42
2023-04-10T15:48:33.921Z,44.28
2023-04-10T15:51:04.973Z,41.72
2023-04-10T15:53:31.684Z,44.67
2023-04-10T15:55:58.534Z,43.22
2023-04-10T15:58:25.271Z,46.55
2023-04-10T16:00:51.930Z,41.45
2023-04-10T16:03:18.820Z,43.25
2023-04-10T16:05:45.521Z,42.88
2023-04-10T16:08:12.098Z,42.72
2023-04-10T16:10:39.107Z,48.88
2023-04-10T16:13:06.795Z,46.92
2023-04-10T16:15:35.606Z,44.13
2023-04-10T16:18:06.399Z,52.03
2023-04-10T16:20:33.471Z,49.28
2023-04-10T16:23:00.399Z,53.33
2023-04-10T16:25:27.903Z,42.47
2023-04-10T16:27:55.731Z,50.05
2023-04-10T16:30:22.644Z,54.40
2023-04-10T16:32:49.329Z,54.40
2023-04-10T16:35:18.022Z,45.72
2023-04-10T16:37:45.774Z,42.40
2023-04-10T16:40:12.562Z,39.90
2023-04-10T16:42:40.039Z,41.85
2023-04-10T16:45:08.265Z,38.85
2023-04-10T16:47:35.198Z,38.95
2023-04-10T16:50:01.954Z,39.03
2023-04-10T16:52:28.616Z,38.78
2023-04-10T16:54:55.497Z,38.03
2023-04-10T16:57:22.285Z,38.50
2023-04-10T16:59:49.045Z,39.25
2023-04-10T17:02:15.718Z,39.55
2023-04-10T17:04:42.370Z,43.15
2023-04-10T17:07:09.424Z,43.80
2023-04-10T17:09:36.171Z,60.65
2023-04-10T17:12:02.805Z,44.65
2023-04-10T17:14:29.568Z,43.30
2023-04-10T17:16:56.507Z,43.50
2023-04-10T17:19:23.205Z,40.38
2023-04-10T17:21:52.035Z,41.45
2023-04-10T17:24:18.634Z,50.88
2023-04-10T17:26:45.341Z,51.25
2023-04-10T17:29:11.943Z,46.25
2023-04-10T17:31:38.709Z,39.17
2023-04-10T17:34:05.322Z,39.72
2023-04-10T17:36:32.426Z,45.25
2023-04-10T17:38:59.882Z,45.15
2023-04-10T17:41:26.891Z,41.45
2023-04-10T17:43:53.560Z,45.22
2023-04-10T17:46:20.220Z,24.60
2023-04-10T17:48:46.930Z,25.30
2023-04-10T17:51:13.643Z,24.63
2023-04-10T17:53:40.421Z,25.63
2023-04-10T17:56:07.635Z,25.33
2023-04-10T17:58:34.277Z,25.23
2023-04-10T18:01:01.093Z,25.08
2023-04-10T18:03:28.233Z,25.30
2023-04-10T18:05:55.094Z,42.63
2023-04-10T18:08:21.732Z,29.10
2023-04-10T18:10:48.504Z,24.67
2023-04-10T18:13:15.211Z,26.38
2023-04-10T18:15:41.910Z,27.42
2023-04-10T18:18:08.594Z,27.08
2023-04-10T18:20:35.508Z,26.98
2023-04-10T18:23:04.685Z,26.77
2023-04-10T18:25:31.377Z,26.80
2023-04-10T18:28:13.629Z,25.48
2023-04-10T18:30:41.679Z,26.08
2023-04-10T18:33:10.882Z,26.02
2023-04-10T18:35:38.066Z,26.73
2023-04-10T18:38:04.906Z,27.48
2023-04-10T18:40:31.617Z,27.30
2023-04-10T18:42:59.547Z,27.48
2023-04-10T18:45:26.158Z,27.05
2023-04-10T18:47:52.879Z,33.08
2023-04-10T18:50:19.504Z,26.45
2023-04-10T18:52:46.110Z,26.80
2023-04-10T18:55:12.821Z,26.70
2023-04-10T18:57:39.520Z,26.05
2023-04-10T19:00:08.125Z,26.10
2023-04-10T19:02:35.105Z,26.40
2023-04-10T19:05:01.870Z,26.73
2023-04-10T19:07:28.592Z,27.73
2023-04-10T19:09:55.238Z,30.70
2023-04-10T19:12:22.510Z,27.60
2023-04-10T19:14:49.106Z,28.45
2023-04-10T19:17:15.836Z,28.15
2023-04-10T19:19:42.809Z,29.20
2023-04-10T19:22:09.455Z,26.20
2023-04-10T19:24:36.143Z,25.30
2023-04-10T19:27:02.767Z,26.50
2023-04-10T19:29:30.863Z,25.23
2023-04-10T19:31:58.016Z,25.90
2023-04-10T19:34:24.612Z,26.50
2023-04-10T19:36:51.303Z,26.48
2023-04-10T19:39:18.325Z,24.98
2023-04-10T19:41:45.023Z,26.63
2023-04-10T19:44:11.984Z,26.08
2023-04-10T19:46:38.765Z,25.40
2023-04-10T19:49:05.488Z,25.70
2023-04-10T19:51:32.265Z,24.98
2023-04-10T19:53:59.192Z,25.25
2023-04-10T19:56:27.597Z,25.75
2023-04-10T19:58:54.221Z,25.98
2023-04-10T20:01:20.939Z,26.42
2023-04-10T20:03:47.733Z,26.65
2023-04-10T20:06:16.279Z,26.50
2023-04-10T20:08:42.988Z,27.45
2023-04-10T20:11:09.773Z,26.10
2023-04-10T20:13:36.587Z,26.60
2023-04-10T20:16:03.291Z,25.08
2023-04-10T20:18:31.421Z,25.60
2023-04-10T20:20:58.067Z,28.48
2023-04-10T20:23:24.668Z,29.30
2023-04-10T20:25:51.389Z,26.17
2023-04-10T20:28:18.561Z,25.13
2023-04-10T20:30:45.260Z,25.35
2023-04-10T20:33:11.996Z,24.92
2023-04-10T20:35:38.869Z,25.30
2023-04-10T20:38:05.641Z,25.77
2023-04-10T20:40:32.534Z,23.90
2023-04-10T20:42:59.213Z,23.08
2023-04-10T20:45:25.893Z,20.55
2023-04-10T20:47:52.618Z,20.70
2023-04-10T20:50:19.494Z,21.42
2023-04-10T20:52:46.227Z,18.60
2023-04-10T20:55:12.902Z,18.55
2023-04-10T20:57:39.779Z,19.00
2023-04-10T21:00:07.154Z,18.10
2023-04-10T21:02:34.137Z,17.83
2023-04-10T21:05:00.920Z,17.33
2023-04-10T21:07:27.949Z,17.05
2023-04-10T21:09:54.662Z,16.15
2023-04-10T21:12:22.630Z,16.20
2023-04-10T21:14:49.391Z,16.30
2023-04-10T21:17:17.715Z,15.43
2023-04-10T21:19:44.468Z,14.38
2023-04-10T21:22:11.348Z,15.85
2023-04-10T21:24:38.130Z,14.48
2023-04-10T21:27:05.096Z,15.95
2023-04-10T21:29:31.777Z,15.93
2023-04-10T21:31:58.460Z,16.25
2023-04-10T21:34:25.452Z,16.15
2023-04-10T21:36:52.084Z,17.92
2023-04-10T21:39:18.835Z,19.00
2023-04-10T21:41:45.585Z,20.25
2023-04-10T21:44:12.493Z,19.90
2023-04-10T21:46:39.123Z,19.83
2023-04-10T21:49:06.755Z,18.70
2023-04-10T21:51:33.509Z,17.50
2023-04-10T21:54:00.197Z,16.85
2023-04-10T21:56:26.798Z,14.05
2023-04-10T21:58:53.793Z,11.77
2023-04-10T22:01:20.874Z,9.68
2023-04-10T22:03:47.577Z,13.20
2023-04-10T22:06:14.335Z,10.57
2023-04-10T22:08:41.264Z,6.05
2023-04-10T22:11:09.309Z,6.72
2023-04-10T22:13:35.905Z,7.43
2023-04-10T22:16:02.759Z,10.55
2023-04-10T22:18:29.689Z,8.02
2023-04-10T22:20:56.656Z,7.03
2023-04-10T22:23:26.254Z,6.82
2023-04-10T22:25:52.989Z,9.38
2023-04-10T22:28:19.728Z,5.85
2023-04-10T22:30:46.369Z,7.32
2023-04-10T22:33:13.054Z,7.95
2023-04-10T22:35:39.749Z,6.82
2023-04-10T22:38:07.467Z,6.07
2023-04-10T22:40:34.047Z,6.28
2023-04-10T22:43:00.692Z,7.35
2023-04-10T22:45:27.264Z,8.63
2023-04-10T22:47:54.226Z,4.93
2023-04-10T22:50:21.079Z,7.63
2023-04-10T22:52:47.781Z,7.28
2023-04-10T22:55:15.711Z,6.75
2023-04-10T22:57:42.287Z,9.32
2023-04-10T23:00:09.348Z,7.18
2023-04-10T23:02:36.330Z,7.57
2023-04-10T23:05:03.288Z,4.90
2023-04-10T23:07:30.173Z,5.57
2023-04-10T23:09:56.880Z,6.30
2023-04-10T23:12:23.976Z,6.32
2023-04-10T23:14:50.566Z,4.85
2023-04-10T23:17:17.280Z,6.90
2023-04-10T23:19:43.942Z,9.95
2023-04-10T23:22:10.753Z,6.05
2023-04-10T23:24:38.407Z,8.27
2023-04-10T23:27:08.122Z,6.00
2023-04-10T23:29:34.960Z,6.88
2023-04-10T23:32:01.618Z,5.25
2023-04-10T23:34:28.545Z,6.28
2023-04-10T23:36:55.589Z,5.78
2023-04-10T23:39:22.266Z,5.28
2023-04-10T23:41:48.931Z,6.78
2023-04-10T23:44:15.636Z,4.55
2023-04-10T23:46:42.307Z,5.05
2023-04-10T23:49:08.958Z,3.53
2023-04-10T23:51:35.791Z,7.28
2023-04-10T23:54:02.405Z,3.72
2023-04-10T23:56:29.341Z,8.93
2023-04-10T23:58:56.592Z,6.38
